createdAt,value
2023-02-20T11:00:14.753Z,101301.88
2023-02-20T11:02:45.104Z,101297.53
2023-02-20T11:05:14.626Z,101289.66
2023-02-20T11:07:42.575Z,101275.59
2023-02-20T11:10:10.412Z,101275.59
2023-02-20T11:12:40.882Z,101286.13
2023-02-20T11:15:10.654Z,101279.94
2023-02-20T11:17:40.803Z,101272.09
2023-02-20T11:20:31.537Z,101279.06
2023-02-20T11:22:59.600Z,101277.34
2023-02-20T11:25:28.335Z,101284.41
2023-02-20T11:27:57.661Z,101270.44
2023-02-20T11:30:31.109Z,101280.00
2023-02-20T11:33:06.931Z,101264.31
2023-02-20T11:35:36.892Z,101265.06
2023-02-20T11:38:32.530Z,101272.84
2023-02-20T11:41:08.722Z,101250.03
2023-02-20T11:43:37.003Z,101244.81
2023-02-20T11:46:12.353Z,101242.19
2023-02-20T11:48:46.642Z,101239.56
2023-02-20T11:51:31.572Z,101248.28
2023-02-20T11:54:08.024Z,101249.19
2023-02-20T11:56:35.731Z,101227.34
2023-02-20T11:59:19.971Z,101248.38
2023-02-20T12:02:00.228Z,101236.97
2023-02-20T12:04:29.843Z,101216.81
2023-02-20T12:06:57.510Z,101228.16
2023-02-20T12:09:26.362Z,101235.13
2023-02-20T12:11:57.334Z,101223.69
2023-02-20T12:14:25.084Z,101221.03
2023-02-20T12:17:03.854Z,101224.50
2023-02-20T12:19:38.462Z,101213.09
2023-02-20T12:22:10.953Z,101209.59
2023-02-20T12:25:12.429Z,101216.56
2023-02-20T12:27:47.594Z,101220.06
2023-02-20T12:30:25.945Z,101209.53
2023-02-20T12:32:58.059Z,101200.75
2023-02-20T12:35:33.420Z,101219.16
2023-02-20T12:38:26.854Z,101203.41
2023-02-20T12:41:07.327Z,101213.03
2023-02-20T12:43:39.103Z,101194.66
2023-02-20T12:46:09.546Z,101222.72
2023-02-20T12:48:42.647Z,101201.69
2023-02-20T12:51:19.067Z,101213.06
2023-02-20T12:53:52.149Z,101202.56
2023-02-20T12:56:28.249Z,101215.72
2023-02-20T12:59:01.218Z,101212.19
2023-02-20T13:01:39.212Z,101205.22
2023-02-20T13:04:12.341Z,101210.47
2023-02-20T13:06:44.451Z,101215.72
2023-02-20T13:09:19.718Z,101212.22
2023-02-20T13:11:49.885Z,101214.00
2023-02-20T13:14:26.839Z,101215.75
2023-02-20T13:16:59.150Z,101217.47
2023-02-20T13:19:29.457Z,101219.25
2023-02-20T13:21:58.474Z,101215.72
2023-02-20T13:24:30.467Z,101213.13
2023-02-20T13:26:58.355Z,101214.84
2023-02-20T13:29:27.554Z,101206.94
2023-02-20T13:31:56.316Z,101210.47
2023-02-20T13:34:37.369Z,101202.59
2023-02-20T13:37:06.597Z,101208.69
2023-02-20T13:39:42.045Z,101206.94
2023-02-20T13:42:37.091Z,101208.66
2023-02-20T13:45:38.888Z,101202.59
2023-02-20T13:48:39.889Z,101206.13
2023-02-20T13:51:32.668Z,101212.19
2023-02-20T13:54:21.697Z,101193.09
2023-02-20T13:56:52.188Z,101204.34
2023-02-20T13:59:20.683Z,101189.53
2023-02-20T14:01:58.801Z,101204.28
2023-02-20T14:04:26.700Z,101213.03
2023-02-20T14:06:59.215Z,101206.94
2023-02-20T14:09:31.385Z,101187.78
2023-02-20T14:12:07.924Z,101210.53
2023-02-20T14:14:37.052Z,101193.19
2023-02-20T14:17:06.645Z,101215.75
2023-02-20T14:19:42.908Z,101198.34
2023-02-20T14:22:24.408Z,101187.06
2023-02-20T14:25:23.552Z,101180.88
2023-02-20T14:27:51.279Z,101187.88
2023-02-20T14:30:20.812Z,101184.41
2023-02-20T14:32:49.356Z,101196.69
2023-02-20T14:35:40.897Z,101201.94
2023-02-20T14:38:14.753Z,101194.97
2023-02-20T14:40:44.730Z,101207.22
2023-02-20T14:43:15.812Z,101193.28
2023-02-20T14:45:43.596Z,101215.03
2023-02-20T14:48:22.691Z,101216.81
2023-02-20T14:50:50.432Z,101190.66
2023-02-20T14:53:20.770Z,101199.41
2023-02-20T14:55:51.094Z,101199.44
2023-02-20T14:58:20.316Z,101213.34
2023-02-20T15:00:48.796Z,101205.53
2023-02-20T15:03:29.860Z,101190.69
2023-02-20T15:06:01.571Z,101202.09
2023-02-20T15:08:31.358Z,101210.78
2023-02-20T15:11:00.429Z,101208.25
2023-02-20T15:13:29.816Z,101212.56
2023-02-20T15:16:06.132Z,101206.41
2023-02-20T15:18:34.691Z,101215.25
2023-02-20T15:21:02.429Z,101198.66
2023-02-20T15:23:31.259Z,101206.47
2023-02-20T15:26:00.779Z,101210.03
2023-02-20T15:28:30.589Z,101197.03
2023-02-20T15:31:02.989Z,101209.25
2023-02-20T15:33:31.393Z,101212.63
2023-02-20T15:35:59.543Z,101214.41
2023-02-20T15:38:27.984Z,101216.16
2023-02-20T15:40:57.526Z,101206.56
2023-02-20T15:46:15.294Z,101200.56
2023-02-20T15:48:43.393Z,101199.66
2023-02-20T15:51:11.609Z,101201.44
2023-02-20T15:53:39.709Z,101203.19
2023-02-20T15:56:07.658Z,101197.13
2023-02-20T15:58:38.719Z,101200.59
2023-02-20T16:01:06.980Z,101214.53
2023-02-20T16:03:49.242Z,101200.56
2023-02-20T16:06:19.714Z,101223.28
2023-02-20T16:08:47.675Z,101215.44
2023-02-20T16:11:15.650Z,101210.19
2023-02-20T16:13:45.201Z,101206.75
2023-02-20T16:16:23.837Z,101205.84
2023-02-20T16:18:54.445Z,101192.75
2023-02-20T16:21:22.539Z,101191.97
2023-02-20T16:23:50.752Z,101210.22
2023-02-20T16:26:18.536Z,101198.88
2023-02-20T16:28:47.700Z,101194.59
2023-02-20T16:31:15.518Z,101198.88
2023-02-20T16:33:43.565Z,101186.72
2023-02-20T16:36:19.948Z,101202.47
2023-02-20T16:38:51.175Z,101212.09
2023-02-20T16:41:19.056Z,101198.16
2023-02-20T16:43:48.269Z,101201.63
2023-02-20T16:46:19.832Z,101210.53
2023-02-20T16:48:49.606Z,101210.38
2023-02-20T16:51:19.900Z,101209.47
2023-02-20T16:53:47.657Z,101209.47
2023-02-20T16:56:15.545Z,101202.47
2023-02-20T16:58:43.432Z,101220.69
2023-02-20T17:01:12.900Z,101216.41
2023-02-20T17:03:41.251Z,101225.06
2023-02-20T17:06:09.200Z,101223.47
2023-02-20T17:08:36.940Z,101229.63
2023-02-20T17:11:04.701Z,101224.38
2023-02-20T17:13:32.500Z,101222.56
2023-02-20T17:16:00.341Z,101230.44
2023-02-20T17:18:29.457Z,101233.88
2023-02-20T17:20:57.200Z,101228.75
2023-02-20T17:23:25.010Z,101234.84
2023-02-20T17:25:52.697Z,101231.25
2023-02-20T17:28:20.606Z,101234.72
2023-02-20T17:30:53.068Z,101237.34
2023-02-20T17:33:20.815Z,101235.56
2023-02-20T17:35:49.897Z,101239.94
2023-02-20T17:38:17.628Z,101237.22
2023-02-20T17:40:45.345Z,101231.94
2023-02-20T17:43:13.782Z,101231.88
2023-02-20T17:45:41.561Z,101242.38
2023-02-20T17:48:09.372Z,101230.03
2023-02-20T17:50:37.030Z,101226.50
2023-02-20T17:53:09.050Z,101229.13
2023-02-20T17:55:36.789Z,101237.91
2023-02-20T17:58:04.447Z,101234.44
2023-02-20T18:00:32.131Z,101234.44
2023-02-20T18:02:59.856Z,101226.50
2023-02-20T18:05:27.534Z,101237.91
2023-02-20T18:07:55.191Z,101231.78
2023-02-20T18:10:24.213Z,101222.09
2023-02-20T18:13:03.282Z,101230.84
2023-02-20T18:15:31.347Z,101228.28
2023-02-20T18:17:59.123Z,101234.38
2023-02-20T18:20:26.834Z,101232.66
2023-02-20T18:22:54.514Z,101231.78
2023-02-20T18:25:34.451Z,101245.81
2023-02-20T18:28:07.112Z,101241.47
2023-02-20T18:30:35.420Z,101231.94
2023-02-20T18:33:03.137Z,101244.13
2023-02-20T18:35:30.858Z,101254.59
2023-02-20T18:37:58.954Z,101244.16
2023-02-20T18:40:28.138Z,101242.44
2023-02-20T18:42:55.819Z,101249.34
2023-02-20T18:45:23.929Z,101244.09
2023-02-20T18:47:52.064Z,101253.69
2023-02-20T18:50:19.996Z,101254.63
2023-02-20T18:52:48.045Z,101257.25
2023-02-20T18:55:17.552Z,101252.00
2023-02-20T18:57:47.691Z,101257.25
2023-02-20T19:00:17.629Z,101245.00
2023-02-20T19:02:45.497Z,101248.47
2023-02-20T19:05:13.557Z,101243.34
2023-02-20T19:07:44.515Z,101248.44
2023-02-20T19:10:12.501Z,101251.94
2023-02-20T19:12:40.231Z,101244.03
2023-02-20T19:15:09.852Z,101251.88
2023-02-20T19:17:37.945Z,101252.75
2023-02-20T19:20:07.741Z,101254.56
2023-02-20T19:22:35.407Z,101244.84
2023-02-20T19:25:03.635Z,101248.34
2023-02-20T19:27:31.639Z,101246.59
2023-02-20T19:29:59.330Z,101251.03
2023-02-20T19:32:28.493Z,101253.66
2023-02-20T19:34:56.224Z,101249.31
2023-02-20T19:37:23.912Z,101245.78
2023-02-20T19:39:51.589Z,101245.72
2023-02-20T19:42:19.325Z,101243.91
2023-02-20T19:44:47.087Z,101237.78
2023-02-20T19:47:16.927Z,101237.78
2023-02-20T19:49:47.179Z,101235.16
2023-02-20T19:52:15.033Z,101239.53
2023-02-20T19:54:45.047Z,101243.91
2023-02-20T19:57:12.963Z,101250.88
2023-02-20T19:59:40.716Z,101255.22
2023-02-20T20:02:08.498Z,101243.84
2023-02-20T20:04:36.224Z,101249.13
2023-02-20T20:07:05.392Z,101244.72
2023-02-20T20:09:37.064Z,101243.91
2023-02-20T20:12:08.705Z,101252.59
2023-02-20T20:14:37.584Z,101249.13
2023-02-20T20:17:05.288Z,101244.69
2023-02-20T20:19:33.097Z,101249.84
2023-02-20T20:22:00.810Z,101255.91
2023-02-20T20:24:29.875Z,101245.38
2023-02-20T20:26:59.192Z,101246.25
2023-02-20T20:29:27.080Z,101261.09
2023-02-20T20:31:54.813Z,101254.09
2023-02-20T20:34:22.558Z,101258.50
2023-02-20T20:36:50.250Z,101254.97
2023-02-20T20:39:18.790Z,101244.47
2023-02-20T20:41:47.910Z,101254.09
2023-02-20T20:44:15.603Z,101248.00
2023-02-20T20:46:43.284Z,101255.94
2023-02-20T20:49:11.931Z,101255.91
2023-02-20T20:51:39.632Z,101249.81
2023-02-20T20:54:07.553Z,101253.28
2023-02-20T20:56:35.307Z,101242.75
2023-02-20T20:59:04.620Z,101242.75
2023-02-20T21:01:32.378Z,101242.75
2023-02-20T21:04:00.105Z,101235.78
2023-02-20T21:06:27.780Z,101251.47
2023-02-20T21:08:56.145Z,101230.41
2023-02-20T21:11:24.079Z,101239.13
2023-02-20T21:13:51.852Z,101245.25
2023-02-20T21:16:20.904Z,101242.69
2023-02-20T21:18:48.578Z,101242.72
2023-02-20T21:21:16.243Z,101240.06
2023-02-20T21:23:45.333Z,101246.19
2023-02-20T21:26:13.187Z,101258.47
2023-02-20T21:28:40.877Z,101241.84
2023-02-20T21:31:08.651Z,101248.91
2023-02-20T21:33:37.717Z,101230.56
2023-02-20T21:36:06.628Z,101235.84
2023-02-20T21:38:35.338Z,101245.47
2023-02-20T21:41:03.060Z,101247.22
2023-02-20T21:43:48.089Z,101233.19
2023-02-20T21:46:15.800Z,101242.81
2023-02-20T21:48:45.189Z,101242.81
2023-02-20T21:51:13.187Z,101236.69
2023-02-20T21:53:43.129Z,101229.66
2023-02-20T21:56:10.864Z,101234.91
2023-02-20T21:58:55.898Z,101244.56
2023-02-20T22:01:22.526Z,101227.91
2023-02-20T22:03:51.166Z,101238.44
2023-02-20T22:06:17.726Z,101236.69
2023-02-20T22:09:03.074Z,101231.47
2023-02-20T22:11:49.977Z,101234.13
2023-02-20T22:14:35.231Z,101237.66
2023-02-20T22:17:20.595Z,101234.94
2023-02-20T22:20:07.246Z,101232.34
2023-02-20T22:22:52.712Z,101241.13
2023-02-20T22:25:38.088Z,101241.16
2023-02-20T22:28:23.596Z,101247.28
2023-02-20T22:31:09.065Z,101245.53
2023-02-20T22:33:54.233Z,101249.91
2023-02-20T22:36:40.849Z,101245.53
2023-02-20T22:39:26.212Z,101252.50
2023-02-20T22:42:14.189Z,101254.25
2023-02-20T22:44:59.426Z,101241.03
2023-02-20T22:47:44.567Z,101247.19
2023-02-20T22:50:29.709Z,101241.97
2023-02-20T22:53:16.478Z,101247.25
2023-02-20T22:56:01.722Z,101241.97
2023-02-20T22:58:47.033Z,101252.47
2023-02-20T23:01:32.256Z,101255.09
2023-02-20T23:04:17.616Z,101247.13
2023-02-20T23:07:02.879Z,101268.13
2023-02-20T23:09:49.415Z,101265.41
2023-02-20T23:12:34.828Z,101252.31
2023-02-20T23:15:20.041Z,101261.13
2023-02-20T23:18:05.300Z,101262.88
2023-02-20T23:20:50.579Z,101265.41
2023-02-20T23:23:35.835Z,101266.22
2023-02-20T23:26:23.778Z,101269.75
2023-02-20T23:29:09.159Z,101267.13
2023-02-20T23:31:55.602Z,101276.84
2023-02-20T23:34:41.110Z,101286.47
2023-02-20T23:37:26.432Z,101285.53
2023-02-20T23:40:11.756Z,101280.25
2023-02-20T23:42:58.427Z,101295.06
2023-02-20T23:45:43.830Z,101285.44
2023-02-20T23:48:29.273Z,101290.75
2023-02-20T23:51:14.738Z,101292.53
2023-02-20T23:54:00.125Z,101304.81
2023-02-20T23:56:45.436Z,101303.97
2023-02-20T23:59:32.120Z,101308.41
